sensor_id;sensor_type;location;lat;lon;timestamp;temperature;humidity
21676;DHT22;10999;51.332;9.458;2023-03-01T00:01:14;-2.60;67.10
21676;DHT22;10999;51.332;9.458;2023-03-01T00:03:42;-2.70;67.10
21676;DHT22;10999;51.332;9.458;2023-03-01T00:06:09;-2.70;67.30
21676;DHT22;10999;51.332;9.458;2023-03-01T00:08:35;-2.70;67.50
21676;DHT22;10999;51.332;9.458;2023-03-01T00:11:03;-2.70;67.60
21676;DHT22;10999;51.332;9.458;2023-03-01T00:13:30;-2.70;67.60
21676;DHT22;10999;51.332;9.458;2023-03-01T00:15:57;-2.80;67.60
21676;DHT22;10999;51.332;9.458;2023-03-01T00:18:24;-2.80;67.80
21676;DHT22;10999;51.332;9.458;2023-03-01T00:20:55;-2.80;68.00
21676;DHT22;10999;51.332;9.458;2023-03-01T00:23:23;-2.80;68.20
21676;DHT22;10999;51.332;9.458;2023-03-01T00:25:50;-2.90;68.60
21676;DHT22;10999;51.332;9.458;2023-03-01T00:28:17;-2.90;68.90
21676;DHT22;10999;51.332;9.458;2023-03-01T00:30:43;-2.90;69.10
21676;DHT22;10999;51.332;9.458;2023-03-01T00:33:10;-2.90;69.20
21676;DHT22;10999;51.332;9.458;2023-03-01T00:35:37;-2.90;69.60
21676;DHT22;10999;51.332;9.458;2023-03-01T00:38:04;-3.00;69.90
21676;DHT22;10999;51.332;9.458;2023-03-01T00:40:34;-3.00;70.00
21676;DHT22;10999;51.332;9.458;2023-03-01T00:43:01;-3.00;70.70
21676;DHT22;10999;51.332;9.458;2023-03-01T00:45:28;-3.00;70.00
21676;DHT22;10999;51.332;9.458;2023-03-01T00:47:55;-3.00;70.10
21676;DHT22;10999;51.332;9.458;2023-03-01T00:50:23;-3.00;70.40
21676;DHT22;10999;51.332;9.458;2023-03-01T00:52:55;-3.10;70.50
21676;DHT22;10999;51.332;9.458;2023-03-01T00:55:22;-3.20;70.60
21676;DHT22;10999;51.332;9.458;2023-03-01T00:57:50;-3.20;70.80
21676;DHT22;10999;51.332;9.458;2023-03-01T01:00:17;-3.30;71.00
21676;DHT22;10999;51.332;9.458;2023-03-01T01:02:45;-3.30;71.30
21676;DHT22;10999;51.332;9.458;2023-03-01T01:05:12;-3.30;71.70
21676;DHT22;10999;51.332;9.458;2023-03-01T01:07:39;-3.40;72.00
21676;DHT22;10999;51.332;9.458;2023-03-01T01:10:06;-3.40;72.40
21676;DHT22;10999;51.332;9.458;2023-03-01T01:12:33;-3.40;72.60
21676;DHT22;10999;51.332;9.458;2023-03-01T01:14:59;-3.40;73.10
21676;DHT22;10999;51.332;9.458;2023-03-01T01:17:26;-3.40;73.10
21676;DHT22;10999;51.332;9.458;2023-03-01T01:19:52;-3.40;73.40
21676;DHT22;10999;51.332;9.458;2023-03-01T01:22:19;-3.50;73.40
21676;DHT22;10999;51.332;9.458;2023-03-01T01:24:46;-3.50;73.50
21676;DHT22;10999;51.332;9.458;2023-03-01T01:27:12;-3.40;73.60
21676;DHT22;10999;51.332;9.458;2023-03-01T01:29:39;-3.50;73.60
21676;DHT22;10999;51.332;9.458;2023-03-01T01:32:06;-3.50;73.70
21676;DHT22;10999;51.332;9.458;2023-03-01T01:34:32;-3.50;73.80
21676;DHT22;10999;51.332;9.458;2023-03-01T01:36:59;-3.50;73.90
21676;DHT22;10999;51.332;9.458;2023-03-01T01:39:29;-3.50;74.10
21676;DHT22;10999;51.332;9.458;2023-03-01T01:41:55;-3.50;74.20
21676;DHT22;10999;51.332;9.458;2023-03-01T01:44:26;-3.60;74.40
21676;DHT22;10999;51.332;9.458;2023-03-01T01:47:07;-3.50;74.80
21676;DHT22;10999;51.332;9.458;2023-03-01T01:52:13;-3.60;74.40
21676;DHT22;10999;51.332;9.458;2023-03-01T01:57:19;-3.50;74.40
21676;DHT22;10999;51.332;9.458;2023-03-01T01:59:51;-3.50;74.50
21676;DHT22;10999;51.332;9.458;2023-03-01T02:02:19;-3.60;74.40
21676;DHT22;10999;51.332;9.458;2023-03-01T02:04:48;-3.60;74.70
21676;DHT22;10999;51.332;9.458;2023-03-01T02:07:19;-3.60;74.60
21676;DHT22;10999;51.332;9.458;2023-03-01T02:09:49;-3.70;74.60
21676;DHT22;10999;51.332;9.458;2023-03-01T02:12:18;-3.70;74.70
21676;DHT22;10999;51.332;9.458;2023-03-01T02:14:46;-3.70;74.90
21676;DHT22;10999;51.332;9.458;2023-03-01T02:17:15;-3.70;75.10
21676;DHT22;10999;51.332;9.458;2023-03-01T02:22:32;-3.80;75.40
21676;DHT22;10999;51.332;9.458;2023-03-01T02:30:20;-3.90;76.20
21676;DHT22;10999;51.332;9.458;2023-03-01T02:32:48;-3.90;76.30
21676;DHT22;10999;51.332;9.458;2023-03-01T02:35:16;-3.90;76.40
21676;DHT22;10999;51.332;9.458;2023-03-01T02:37:44;-3.90;77.20
21676;DHT22;10999;51.332;9.458;2023-03-01T02:40:15;-3.90;77.40
21676;DHT22;10999;51.332;9.458;2023-03-01T02:42:49;-3.90;76.80
21676;DHT22;10999;51.332;9.458;2023-03-01T02:45:17;-3.90;76.70
21676;DHT22;10999;51.332;9.458;2023-03-01T02:47:44;-4.00;76.60
21676;DHT22;10999;51.332;9.458;2023-03-01T02:53:04;-4.00;76.70
21676;DHT22;10999;51.332;9.458;2023-03-01T02:55:33;-4.00;76.70
21676;DHT22;10999;51.332;9.458;2023-03-01T02:57:59;-4.00;76.70
21676;DHT22;10999;51.332;9.458;2023-03-01T03:00:36;-4.00;76.70
21676;DHT22;10999;51.332;9.458;2023-03-01T03:03:07;-4.00;76.60
21676;DHT22;10999;51.332;9.458;2023-03-01T03:05:34;-4.00;76.60
21676;DHT22;10999;51.332;9.458;2023-03-01T03:08:02;-4.10;76.80
21676;DHT22;10999;51.332;9.458;2023-03-01T03:10:32;-4.10;76.80
21676;DHT22;10999;51.332;9.458;2023-03-01T03:13:10;-4.10;77.00
21676;DHT22;10999;51.332;9.458;2023-03-01T03:15:38;-4.20;77.10
21676;DHT22;10999;51.332;9.458;2023-03-01T03:18:12;-4.20;77.20
21676;DHT22;10999;51.332;9.458;2023-03-01T03:20:40;-4.20;77.20
21676;DHT22;10999;51.332;9.458;2023-03-01T03:23:07;-4.20;77.60
21676;DHT22;10999;51.332;9.458;2023-03-01T03:25:34;-4.30;77.60
21676;DHT22;10999;51.332;9.458;2023-03-01T03:28:05;-4.30;77.70
21676;DHT22;10999;51.332;9.458;2023-03-01T03:30:39;-4.30;77.70
21676;DHT22;10999;51.332;9.458;2023-03-01T03:33:07;-4.30;77.90
21676;DHT22;10999;51.332;9.458;2023-03-01T03:35:45;-4.40;78.00
21676;DHT22;10999;51.332;9.458;2023-03-01T03:38:14;-4.40;78.10
21676;DHT22;10999;51.332;9.458;2023-03-01T03:40:48;-4.40;78.40
21676;DHT22;10999;51.332;9.458;2023-03-01T03:43:18;-4.40;79.30
21676;DHT22;10999;51.332;9.458;2023-03-01T03:45:46;-4.50;78.60
21676;DHT22;10999;51.332;9.458;2023-03-01T03:48:14;-4.50;78.80
21676;DHT22;10999;51.332;9.458;2023-03-01T03:50:41;-4.50;78.90
21676;DHT22;10999;51.332;9.458;2023-03-01T03:53:12;-4.50;78.90
21676;DHT22;10999;51.332;9.458;2023-03-01T03:55:39;-4.50;78.90
21676;DHT22;10999;51.332;9.458;2023-03-01T03:58:08;-4.50;79.10
21676;DHT22;10999;51.332;9.458;2023-03-01T04:00:42;-4.50;79.10
21676;DHT22;10999;51.332;9.458;2023-03-01T04:03:11;-4.50;79.10
21676;DHT22;10999;51.332;9.458;2023-03-01T04:05:38;-4.60;79.10
21676;DHT22;10999;51.332;9.458;2023-03-01T04:08:07;-4.60;79.20
21676;DHT22;10999;51.332;9.458;2023-03-01T04:10:46;-4.60;79.20
21676;DHT22;10999;51.332;9.458;2023-03-01T04:13:21;-4.60;79.30
21676;DHT22;10999;51.332;9.458;2023-03-01T04:15:49;-4.60;79.30
21676;DHT22;10999;51.332;9.458;2023-03-01T04:18:18;-4.60;79.40
21676;DHT22;10999;51.332;9.458;2023-03-01T04:20:46;-4.60;79.70
21676;DHT22;10999;51.332;9.458;2023-03-01T04:23:15;-4.60;79.80
21676;DHT22;10999;51.332;9.458;2023-03-01T04:25:52;-4.60;79.80
21676;DHT22;10999;51.332;9.458;2023-03-01T04:28:38;-4.70;80.10
21676;DHT22;10999;51.332;9.458;2023-03-01T04:31:14;-4.70;80.30
21676;DHT22;10999;51.332;9.458;2023-03-01T04:33:51;-4.70;80.60
21676;DHT22;10999;51.332;9.458;2023-03-01T04:36:19;-4.70;80.60
21676;DHT22;10999;51.332;9.458;2023-03-01T04:38:46;-4.70;80.50
21676;DHT22;10999;51.332;9.458;2023-03-01T04:41:18;-4.70;80.80
21676;DHT22;10999;51.332;9.458;2023-03-01T04:43:45;-4.70;80.90
21676;DHT22;10999;51.332;9.458;2023-03-01T04:46:15;-4.70;81.00
21676;DHT22;10999;51.332;9.458;2023-03-01T04:48:43;-4.70;81.10
21676;DHT22;10999;51.332;9.458;2023-03-01T04:51:10;-4.80;81.20
21676;DHT22;10999;51.332;9.458;2023-03-01T04:53:40;-4.80;81.20
21676;DHT22;10999;51.332;9.458;2023-03-01T04:56:08;-4.80;81.30
21676;DHT22;10999;51.332;9.458;2023-03-01T04:58:35;-4.80;81.40
21676;DHT22;10999;51.332;9.458;2023-03-01T05:01:11;-4.70;81.60
21676;DHT22;10999;51.332;9.458;2023-03-01T05:03:43;-4.70;81.90
21676;DHT22;10999;51.332;9.458;2023-03-01T05:06:10;-4.80;81.90
21676;DHT22;10999;51.332;9.458;2023-03-01T05:08:38;-4.70;82.10
21676;DHT22;10999;51.332;9.458;2023-03-01T05:11:06;-4.70;82.20
21676;DHT22;10999;51.332;9.458;2023-03-01T05:13:36;-4.70;82.40
21676;DHT22;10999;51.332;9.458;2023-03-01T05:16:04;-4.70;82.50
21676;DHT22;10999;51.332;9.458;2023-03-01T05:18:33;-4.70;82.60
21676;DHT22;10999;51.332;9.458;2023-03-01T05:21:08;-4.80;82.40
21676;DHT22;10999;51.332;9.458;2023-03-01T05:23:35;-4.70;82.50
21676;DHT22;10999;51.332;9.458;2023-03-01T05:26:04;-4.70;82.50
21676;DHT22;10999;51.332;9.458;2023-03-01T05:28:37;-4.80;82.50
21676;DHT22;10999;51.332;9.458;2023-03-01T05:31:04;-4.70;82.60
21676;DHT22;10999;51.332;9.458;2023-03-01T05:33:40;-4.80;82.60
21676;DHT22;10999;51.332;9.458;2023-03-01T05:36:08;-4.80;82.50
21676;DHT22;10999;51.332;9.458;2023-03-01T05:38:36;-4.80;82.60
21676;DHT22;10999;51.332;9.458;2023-03-01T05:41:03;-4.80;82.40
21676;DHT22;10999;51.332;9.458;2023-03-01T05:43:30;-4.80;82.30
21676;DHT22;10999;51.332;9.458;2023-03-01T05:46:00;-4.80;82.30
21676;DHT22;10999;51.332;9.458;2023-03-01T05:48:27;-4.90;82.40
21676;DHT22;10999;51.332;9.458;2023-03-01T05:50:53;-4.90;82.50
21676;DHT22;10999;51.332;9.458;2023-03-01T05:53:20;-4.90;82.60
21676;DHT22;10999;51.332;9.458;2023-03-01T05:55:48;-4.90;82.70
21676;DHT22;10999;51.332;9.458;2023-03-01T05:58:18;-4.90;82.70
21676;DHT22;10999;51.332;9.458;2023-03-01T06:00:47;-4.90;82.70
21676;DHT22;10999;51.332;9.458;2023-03-01T06:03:15;-4.90;82.90
21676;DHT22;10999;51.332;9.458;2023-03-01T06:05:43;-4.90;83.00
21676;DHT22;10999;51.332;9.458;2023-03-01T06:08:11;-4.90;82.90
21676;DHT22;10999;51.332;9.458;2023-03-01T06:10:38;-4.90;82.90
21676;DHT22;10999;51.332;9.458;2023-03-01T06:13:04;-4.90;82.80
21676;DHT22;10999;51.332;9.458;2023-03-01T06:15:31;-4.90;82.80
21676;DHT22;10999;51.332;9.458;2023-03-01T06:17:58;-4.90;82.80
21676;DHT22;10999;51.332;9.458;2023-03-01T06:20:27;-4.90;83.00
21676;DHT22;10999;51.332;9.458;2023-03-01T06:22:55;-4.90;83.00
21676;DHT22;10999;51.332;9.458;2023-03-01T06:25:22;-4.90;83.10
21676;DHT22;10999;51.332;9.458;2023-03-01T06:27:50;-4.90;83.00
21676;DHT22;10999;51.332;9.458;2023-03-01T06:30:20;-4.90;83.10
21676;DHT22;10999;51.332;9.458;2023-03-01T06:32:46;-4.80;83.00
21676;DHT22;10999;51.332;9.458;2023-03-01T06:35:15;-4.80;83.10
21676;DHT22;10999;51.332;9.458;2023-03-01T06:37:45;-4.90;83.20
21676;DHT22;10999;51.332;9.458;2023-03-01T06:40:12;-4.90;83.20
21676;DHT22;10999;51.332;9.458;2023-03-01T06:42:41;-4.80;83.20
21676;DHT22;10999;51.332;9.458;2023-03-01T06:45:10;-4.80;83.30
21676;DHT22;10999;51.332;9.458;2023-03-01T06:47:37;-4.70;83.50
21676;DHT22;10999;51.332;9.458;2023-03-01T06:50:03;-4.70;83.70
21676;DHT22;10999;51.332;9.458;2023-03-01T06:52:31;-4.60;83.80
21676;DHT22;10999;51.332;9.458;2023-03-01T06:54:58;-4.60;84.00
21676;DHT22;10999;51.332;9.458;2023-03-01T06:57:24;-4.50;84.10
21676;DHT22;10999;51.332;9.458;2023-03-01T06:59:51;-4.40;84.10
21676;DHT22;10999;51.332;9.458;2023-03-01T07:02:18;-4.40;84.10
21676;DHT22;10999;51.332;9.458;2023-03-01T07:04:45;-4.30;84.10
21676;DHT22;10999;51.332;9.458;2023-03-01T07:07:14;-4.30;84.10
21676;DHT22;10999;51.332;9.458;2023-03-01T07:09:41;-4.20;84.00
21676;DHT22;10999;51.332;9.458;2023-03-01T07:12:08;-4.10;84.10
21676;DHT22;10999;51.332;9.458;2023-03-01T07:14:34;-4.00;84.10
21676;DHT22;10999;51.332;9.458;2023-03-01T07:17:01;-3.90;84.30
21676;DHT22;10999;51.332;9.458;2023-03-01T07:19:28;-3.70;85.20
21676;DHT22;10999;51.332;9.458;2023-03-01T07:21:54;-3.60;84.40
21676;DHT22;10999;51.332;9.458;2023-03-01T07:24:22;-3.40;84.10
21676;DHT22;10999;51.332;9.458;2023-03-01T07:26:49;-3.30;83.60
21676;DHT22;10999;51.332;9.458;2023-03-01T07:29:17;-3.10;83.10
21676;DHT22;10999;51.332;9.458;2023-03-01T07:31:44;-3.00;82.40
21676;DHT22;10999;51.332;9.458;2023-03-01T07:34:11;-2.80;82.00
21676;DHT22;10999;51.332;9.458;2023-03-01T07:36:38;-2.60;81.70
21676;DHT22;10999;51.332;9.458;2023-03-01T07:39:05;-2.20;81.10
21676;DHT22;10999;51.332;9.458;2023-03-01T07:41:32;-1.90;79.70
21676;DHT22;10999;51.332;9.458;2023-03-01T07:43:59;-1.70;79.30
21676;DHT22;10999;51.332;9.458;2023-03-01T07:46:26;-1.40;78.10
21676;DHT22;10999;51.332;9.458;2023-03-01T07:48:53;-0.80;74.80
21676;DHT22;10999;51.332;9.458;2023-03-01T07:51:19;-0.20;72.60
21676;DHT22;10999;51.332;9.458;2023-03-01T07:53:48;0.40;68.80
21676;DHT22;10999;51.332;9.458;2023-03-01T07:56:15;0.90;57.70
21676;DHT22;10999;51.332;9.458;2023-03-01T07:58:44;1.30;57.30
21676;DHT22;10999;51.332;9.458;2023-03-01T08:01:13;1.90;56.80
21676;DHT22;10999;51.332;9.458;2023-03-01T08:03:40;2.10;48.70
21676;DHT22;10999;51.332;9.458;2023-03-01T08:06:09;2.60;50.60
21676;DHT22;10999;51.332;9.458;2023-03-01T08:08:37;3.00;49.60
21676;DHT22;10999;51.332;9.458;2023-03-01T08:11:05;3.40;46.10
21676;DHT22;10999;51.332;9.458;2023-03-01T08:13:32;3.70;44.70
21676;DHT22;10999;51.332;9.458;2023-03-01T08:16:08;4.20;39.90
21676;DHT22;10999;51.332;9.458;2023-03-01T08:18:35;4.20;34.90
21676;DHT22;10999;51.332;9.458;2023-03-01T08:21:07;4.60;35.00
21676;DHT22;10999;51.332;9.458;2023-03-01T08:23:34;4.80;34.60
21676;DHT22;10999;51.332;9.458;2023-03-01T08:26:11;4.90;30.10
21676;DHT22;10999;51.332;9.458;2023-03-01T08:28:38;5.10;31.40
21676;DHT22;10999;51.332;9.458;2023-03-01T08:31:26;5.30;33.30
21676;DHT22;10999;51.332;9.458;2023-03-01T08:33:59;5.60;30.10
21676;DHT22;10999;51.332;9.458;2023-03-01T08:36:28;5.70;27.70
21676;DHT22;10999;51.332;9.458;2023-03-01T08:38:56;6.10;28.20
21676;DHT22;10999;51.332;9.458;2023-03-01T08:41:23;6.10;27.30
21676;DHT22;10999;51.332;9.458;2023-03-01T08:43:50;6.30;27.80
21676;DHT22;10999;51.332;9.458;2023-03-01T08:46:17;6.50;26.50
21676;DHT22;10999;51.332;9.458;2023-03-01T08:48:43;6.60;25.80
21676;DHT22;10999;51.332;9.458;2023-03-01T08:51:15;6.70;25.10
21676;DHT22;10999;51.332;9.458;2023-03-01T08:53:44;6.90;27.10
21676;DHT22;10999;51.332;9.458;2023-03-01T08:56:11;7.30;25.60
21676;DHT22;10999;51.332;9.458;2023-03-01T08:58:38;7.60;20.90
21676;DHT22;10999;51.332;9.458;2023-03-01T09:01:13;7.70;20.80
21676;DHT22;10999;51.332;9.458;2023-03-01T09:03:40;7.70;20.70
21676;DHT22;10999;51.332;9.458;2023-03-01T09:06:07;7.50;19.10
21676;DHT22;10999;51.332;9.458;2023-03-01T09:08:45;7.80;21.40
21676;DHT22;10999;51.332;9.458;2023-03-01T09:11:20;8.20;21.00
21676;DHT22;10999;51.332;9.458;2023-03-01T09:13:48;8.70;18.80
21676;DHT22;10999;51.332;9.458;2023-03-01T09:16:16;9.10;18.80
21676;DHT22;10999;51.332;9.458;2023-03-01T09:18:44;9.60;17.90
21676;DHT22;10999;51.332;9.458;2023-03-01T09:21:13;9.70;17.80
21676;DHT22;10999;51.332;9.458;2023-03-01T09:23:43;10.00;16.70
21676;DHT22;10999;51.332;9.458;2023-03-01T09:26:12;9.70;13.80
21676;DHT22;10999;51.332;9.458;2023-03-01T09:28:39;9.90;16.00
21676;DHT22;10999;51.332;9.458;2023-03-01T09:31:07;9.80;17.20
21676;DHT22;10999;51.332;9.458;2023-03-01T09:33:34;10.20;15.50
21676;DHT22;10999;51.332;9.458;2023-03-01T09:36:04;10.10;13.80
21676;DHT22;10999;51.332;9.458;2023-03-01T09:38:31;10.30;15.00
21676;DHT22;10999;51.332;9.458;2023-03-01T09:40:59;10.30;14.40
21676;DHT22;10999;51.332;9.458;2023-03-01T09:43:43;10.20;13.60
21676;DHT22;10999;51.332;9.458;2023-03-01T09:46:13;10.00;14.80
21676;DHT22;10999;51.332;9.458;2023-03-01T09:48:48;9.80;13.60
21676;DHT22;10999;51.332;9.458;2023-03-01T09:51:26;9.50;16.40
21676;DHT22;10999;51.332;9.458;2023-03-01T09:53:53;9.40;14.50
21676;DHT22;10999;51.332;9.458;2023-03-01T09:57:05;9.10;16.20
21676;DHT22;10999;51.332;9.458;2023-03-01T09:59:48;9.40;17.40
21676;DHT22;10999;51.332;9.458;2023-03-01T10:07:48;8.90;16.40
21676;DHT22;10999;51.332;9.458;2023-03-01T10:10:34;8.30;16.30
21676;DHT22;10999;51.332;9.458;2023-03-01T10:16:17;8.10;16.60
21676;DHT22;10999;51.332;9.458;2023-03-01T10:18:52;7.80;18.00
21676;DHT22;10999;51.332;9.458;2023-03-01T10:21:20;7.60;16.90
21676;DHT22;10999;51.332;9.458;2023-03-01T10:23:50;7.10;17.70
21676;DHT22;10999;51.332;9.458;2023-03-01T10:26:44;7.00;18.20
21676;DHT22;10999;51.332;9.458;2023-03-01T10:29:14;6.80;19.20
21676;DHT22;10999;51.332;9.458;2023-03-01T10:31:46;6.80;19.10
21676;DHT22;10999;51.332;9.458;2023-03-01T10:34:29;6.90;20.10
21676;DHT22;10999;51.332;9.458;2023-03-01T10:37:07;7.30;23.30
21676;DHT22;10999;51.332;9.458;2023-03-01T10:39:35;7.30;19.60
21676;DHT22;10999;51.332;9.458;2023-03-01T10:42:19;7.20;21.70
21676;DHT22;10999;51.332;9.458;2023-03-01T10:44:49;7.30;19.80
21676;DHT22;10999;51.332;9.458;2023-03-01T10:47:25;7.20;19.80
21676;DHT22;10999;51.332;9.458;2023-03-01T10:52:29;7.20;20.20
21676;DHT22;10999;51.332;9.458;2023-03-01T10:55:02;7.10;22.30
21676;DHT22;10999;51.332;9.458;2023-03-01T10:57:35;7.20;21.30
21676;DHT22;10999;51.332;9.458;2023-03-01T11:00:25;7.30;20.40
21676;DHT22;10999;51.332;9.458;2023-03-01T11:05:25;7.00;19.90
21676;DHT22;10999;51.332;9.458;2023-03-01T11:07:55;6.60;20.00
21676;DHT22;10999;51.332;9.458;2023-03-01T11:10:34;6.60;21.60
21676;DHT22;10999;51.332;9.458;2023-03-01T11:13:16;6.80;22.90
21676;DHT22;10999;51.332;9.458;2023-03-01T11:15:58;6.90;20.30
21676;DHT22;10999;51.332;9.458;2023-03-01T11:18:26;6.60;21.20
21676;DHT22;10999;51.332;9.458;2023-03-01T11:21:11;6.60;21.80
21676;DHT22;10999;51.332;9.458;2023-03-01T11:23:39;6.50;21.80
21676;DHT22;10999;51.332;9.458;2023-03-01T11:26:09;6.50;22.40
21676;DHT22;10999;51.332;9.458;2023-03-01T11:28:40;6.60;24.00
21676;DHT22;10999;51.332;9.458;2023-03-01T11:31:11;6.60;22.20
21676;DHT22;10999;51.332;9.458;2023-03-01T11:36:42;7.00;22.40
21676;DHT22;10999;51.332;9.458;2023-03-01T11:39:31;7.00;20.30
21676;DHT22;10999;51.332;9.458;2023-03-01T11:42:25;6.90;21.00
21676;DHT22;10999;51.332;9.458;2023-03-01T11:44:59;6.80;21.50
21676;DHT22;10999;51.332;9.458;2023-03-01T11:50:20;6.60;21.90
21676;DHT22;10999;51.332;9.458;2023-03-01T12:19:15;6.50;23.50
21676;DHT22;10999;51.332;9.458;2023-03-01T12:25:14;6.30;22.40
21676;DHT22;10999;51.332;9.458;2023-03-01T12:27:51;6.30;24.20
21676;DHT22;10999;51.332;9.458;2023-03-01T12:38:49;6.80;25.10
21676;DHT22;10999;51.332;9.458;2023-03-01T12:41:54;6.80;20.70
21676;DHT22;10999;51.332;9.458;2023-03-01T12:44:42;6.80;22.30
21676;DHT22;10999;51.332;9.458;2023-03-01T12:50:19;7.00;21.10
21676;DHT22;10999;51.332;9.458;2023-03-01T12:52:53;6.90;19.90
21676;DHT22;10999;51.332;9.458;2023-03-01T12:55:34;6.80;19.60
21676;DHT22;10999;51.332;9.458;2023-03-01T12:58:31;6.80;20.70
21676;DHT22;10999;51.332;9.458;2023-03-01T13:01:48;6.80;20.80
21676;DHT22;10999;51.332;9.458;2023-03-01T13:07:35;6.70;20.40
21676;DHT22;10999;51.332;9.458;2023-03-01T13:17:53;7.20;17.40
21676;DHT22;10999;51.332;9.458;2023-03-01T13:28:39;7.00;15.70
21676;DHT22;10999;51.332;9.458;2023-03-01T13:33:57;7.00;15.30
21676;DHT22;10999;51.332;9.458;2023-03-01T13:44:21;7.20;14.90
21676;DHT22;10999;51.332;9.458;2023-03-01T13:47:13;7.20;14.60
21676;DHT22;10999;51.332;9.458;2023-03-01T13:49:55;7.30;13.70
21676;DHT22;10999;51.332;9.458;2023-03-01T13:55:05;7.20;14.40
21676;DHT22;10999;51.332;9.458;2023-03-01T13:57:35;7.20;14.40
21676;DHT22;10999;51.332;9.458;2023-03-01T14:00:06;7.30;14.10
21676;DHT22;10999;51.332;9.458;2023-03-01T14:02:33;7.20;14.40
21676;DHT22;10999;51.332;9.458;2023-03-01T14:05:02;7.20;15.90
21676;DHT22;10999;51.332;9.458;2023-03-01T14:07:29;7.30;15.00
21676;DHT22;10999;51.332;9.458;2023-03-01T14:09:58;7.20;14.80
21676;DHT22;10999;51.332;9.458;2023-03-01T14:15:58;7.30;14.70
21676;DHT22;10999;51.332;9.458;2023-03-01T14:18:40;7.20;15.40
21676;DHT22;10999;51.332;9.458;2023-03-01T14:21:08;7.30;15.90
21676;DHT22;10999;51.332;9.458;2023-03-01T14:23:35;7.20;16.30
21676;DHT22;10999;51.332;9.458;2023-03-01T14:26:05;7.20;16.30
21676;DHT22;10999;51.332;9.458;2023-03-01T14:28:32;7.30;16.10
21676;DHT22;10999;51.332;9.458;2023-03-01T14:31:01;7.20;16.30
21676;DHT22;10999;51.332;9.458;2023-03-01T14:33:30;7.20;16.70
21676;DHT22;10999;51.332;9.458;2023-03-01T14:36:05;7.30;17.00
21676;DHT22;10999;51.332;9.458;2023-03-01T14:38:35;7.30;16.10
21676;DHT22;10999;51.332;9.458;2023-03-01T14:41:06;7.30;16.50
21676;DHT22;10999;51.332;9.458;2023-03-01T14:43:35;7.30;16.30
21676;DHT22;10999;51.332;9.458;2023-03-01T14:46:03;7.30;17.10
21676;DHT22;10999;51.332;9.458;2023-03-01T14:48:31;7.30;16.60
21676;DHT22;10999;51.332;9.458;2023-03-01T14:50:58;7.30;16.90
21676;DHT22;10999;51.332;9.458;2023-03-01T14:53:28;7.30;17.10
21676;DHT22;10999;51.332;9.458;2023-03-01T14:56:03;7.30;17.20
21676;DHT22;10999;51.332;9.458;2023-03-01T14:58:32;7.30;16.80
21676;DHT22;10999;51.332;9.458;2023-03-01T15:01:02;7.30;17.00
21676;DHT22;10999;51.332;9.458;2023-03-01T15:03:38;7.20;16.90
21676;DHT22;10999;51.332;9.458;2023-03-01T15:06:08;7.20;17.60
21676;DHT22;10999;51.332;9.458;2023-03-01T15:08:36;7.20;17.80
21676;DHT22;10999;51.332;9.458;2023-03-01T15:11:22;7.10;17.60
21676;DHT22;10999;51.332;9.458;2023-03-01T15:13:52;7.10;17.80
21676;DHT22;10999;51.332;9.458;2023-03-01T15:16:29;7.10;17.80
21676;DHT22;10999;51.332;9.458;2023-03-01T15:21:32;6.80;17.80
21676;DHT22;10999;51.332;9.458;2023-03-01T15:24:16;6.80;18.50
21676;DHT22;10999;51.332;9.458;2023-03-01T15:26:58;6.80;19.00
21676;DHT22;10999;51.332;9.458;2023-03-01T15:29:30;6.70;18.80
21676;DHT22;10999;51.332;9.458;2023-03-01T15:32:03;6.70;19.20
21676;DHT22;10999;51.332;9.458;2023-03-01T15:34:37;6.60;18.90
21676;DHT22;10999;51.332;9.458;2023-03-01T15:37:06;6.60;19.60
21676;DHT22;10999;51.332;9.458;2023-03-01T15:39:38;6.50;19.70
21676;DHT22;10999;51.332;9.458;2023-03-01T15:45:10;6.40;20.30
21676;DHT22;10999;51.332;9.458;2023-03-01T15:47:40;6.40;20.20
21676;DHT22;10999;51.332;9.458;2023-03-01T15:50:21;6.30;20.80
21676;DHT22;10999;51.332;9.458;2023-03-01T15:52:49;6.30;21.50
21676;DHT22;10999;51.332;9.458;2023-03-01T15:55:19;6.10;21.90
21676;DHT22;10999;51.332;9.458;2023-03-01T15:57:47;6.10;22.30
21676;DHT22;10999;51.332;9.458;2023-03-01T16:00:15;6.00;21.90
21676;DHT22;10999;51.332;9.458;2023-03-01T16:02:43;6.00;22.30
21676;DHT22;10999;51.332;9.458;2023-03-01T16:05:24;5.90;22.50
21676;DHT22;10999;51.332;9.458;2023-03-01T16:07:51;5.90;22.50
21676;DHT22;10999;51.332;9.458;2023-03-01T16:10:19;5.90;22.90
21676;DHT22;10999;51.332;9.458;2023-03-01T16:12:46;5.80;23.20
21676;DHT22;10999;51.332;9.458;2023-03-01T16:15:22;5.80;23.70
21676;DHT22;10999;51.332;9.458;2023-03-01T16:17:49;5.80;24.20
21676;DHT22;10999;51.332;9.458;2023-03-01T16:20:16;5.70;24.70
21676;DHT22;10999;51.332;9.458;2023-03-01T16:22:54;5.70;24.80
21676;DHT22;10999;51.332;9.458;2023-03-01T16:25:21;5.60;24.40
21676;DHT22;10999;51.332;9.458;2023-03-01T16:27:49;5.50;25.00
21676;DHT22;10999;51.332;9.458;2023-03-01T16:30:18;5.50;25.50
21676;DHT22;10999;51.332;9.458;2023-03-01T16:32:47;5.50;26.00
21676;DHT22;10999;51.332;9.458;2023-03-01T16:35:16;5.40;25.60
21676;DHT22;10999;51.332;9.458;2023-03-01T16:37:44;5.30;25.50
21676;DHT22;10999;51.332;9.458;2023-03-01T16:40:23;5.30;25.90
21676;DHT22;10999;51.332;9.458;2023-03-01T16:42:51;5.20;26.40
21676;DHT22;10999;51.332;9.458;2023-03-01T16:45:19;5.10;27.40
21676;DHT22;10999;51.332;9.458;2023-03-01T16:47:52;5.10;28.70
21676;DHT22;10999;51.332;9.458;2023-03-01T16:50:22;5.00;29.30
21676;DHT22;10999;51.332;9.458;2023-03-01T16:52:49;4.90;30.20
21676;DHT22;10999;51.332;9.458;2023-03-01T16:55:16;4.80;30.50
21676;DHT22;10999;51.332;9.458;2023-03-01T16:57:43;4.70;31.00
21676;DHT22;10999;51.332;9.458;2023-03-01T17:00:15;4.60;31.80
21676;DHT22;10999;51.332;9.458;2023-03-01T17:02:44;4.50;32.60
21676;DHT22;10999;51.332;9.458;2023-03-01T17:05:12;4.40;32.60
21676;DHT22;10999;51.332;9.458;2023-03-01T17:07:39;4.30;33.10
21676;DHT22;10999;51.332;9.458;2023-03-01T17:10:08;4.30;32.30
21676;DHT22;10999;51.332;9.458;2023-03-01T17:12:36;4.20;32.30
21676;DHT22;10999;51.332;9.458;2023-03-01T17:15:04;4.10;32.60
21676;DHT22;10999;51.332;9.458;2023-03-01T17:17:31;4.20;30.70
21676;DHT22;10999;51.332;9.458;2023-03-01T17:19:58;4.10;30.70
21676;DHT22;10999;51.332;9.458;2023-03-01T17:22:24;4.10;29.70
21676;DHT22;10999;51.332;9.458;2023-03-01T17:24:51;4.00;28.80
21676;DHT22;10999;51.332;9.458;2023-03-01T17:27:18;4.00;28.10
21676;DHT22;10999;51.332;9.458;2023-03-01T17:29:45;3.90;27.60
21676;DHT22;10999;51.332;9.458;2023-03-01T17:32:11;3.90;27.80
21676;DHT22;10999;51.332;9.458;2023-03-01T17:34:38;3.80;27.70
21676;DHT22;10999;51.332;9.458;2023-03-01T17:37:05;3.80;27.60
21676;DHT22;10999;51.332;9.458;2023-03-01T17:39:32;3.70;27.30
21676;DHT22;10999;51.332;9.458;2023-03-01T17:42:03;3.60;27.00
21676;DHT22;10999;51.332;9.458;2023-03-01T17:44:32;3.60;26.40
21676;DHT22;10999;51.332;9.458;2023-03-01T17:47:01;3.60;26.70
21676;DHT22;10999;51.332;9.458;2023-03-01T17:49:29;3.50;27.00
21676;DHT22;10999;51.332;9.458;2023-03-01T17:51:56;3.50;27.60
21676;DHT22;10999;51.332;9.458;2023-03-01T17:54:23;3.40;27.10
21676;DHT22;10999;51.332;9.458;2023-03-01T17:56:50;3.30;27.40